Time;durP1;ratioP1;P1;durP2;ratioP2;P2;SDS_P1;SDS_P2;PMS_P1;PMS_P2;Temp;Humidity;BMP_temperature;BMP_pressure;BME280_temperature;BME280_humidity;BME280_pressure;Samples;Min_cycle;Max_cycle;Signal;HPM_P1;HPM_P2
2022/02/23 00:01:03;;;;;;;1.90;0.93;;;21.80;44.70;;;;;;4994376;28;20038;-70
2022/02/23 00:03:28;;;;;;;2.35;1.00;;;21.80;44.80;;;;;;4996812;28;20487;-67
2022/02/23 00:05:54;;;;;;;2.85;1.00;;;21.80;44.80;;;;;;4998091;28;20054;-67
2022/02/23 00:08:20;;;;;;;1.95;1.00;;;21.80;44.80;;;;;;5013260;28;20090;-69
2022/02/23 00:10:46;;;;;;;1.50;0.88;;;21.80;44.80;;;;;;4997136;28;20042;-70
2022/02/23 00:13:11;;;;;;;1.77;0.90;;;21.80;44.90;;;;;;4997215;28;20497;-69
2022/02/23 00:15:37;;;;;;;1.42;0.80;;;21.70;44.80;;;;;;5011967;28;20382;-66
2022/02/23 00:18:03;;;;;;;2.22;0.88;;;21.70;44.80;;;;;;4996045;28;20056;-68
2022/02/23 00:20:28;;;;;;;2.58;0.93;;;21.70;44.80;;;;;;4996422;28;20095;-69
2022/02/23 00:22:54;;;;;;;1.40;0.80;;;21.70;44.80;;;;;;4998187;28;20039;-67
2022/02/23 00:25:21;;;;;;;2.30;0.95;;;21.70;44.80;;;;;;5012983;28;20037;-67
2022/02/23 00:27:46;;;;;;;2.53;0.93;;;21.60;44.80;;;;;;4997087;28;20130;-70
2022/02/23 00:30:12;;;;;;;1.40;0.80;;;21.60;44.80;;;;;;4994683;28;20022;-69
2022/02/23 00:32:38;;;;;;;2.92;1.13;;;21.60;44.80;;;;;;4996157;28;20116;-68
2022/02/23 00:35:04;;;;;;;2.50;1.00;;;21.60;44.90;;;;;;4997060;28;20537;-67
2022/02/23 00:37:30;;;;;;;2.05;0.90;;;21.60;44.90;;;;;;4996625;28;20475;-70
2022/02/23 00:39:55;;;;;;;1.40;0.70;;;21.60;44.90;;;;;;4996029;28;20033;-69
2022/02/23 00:42:21;;;;;;;2.35;0.90;;;21.50;44.80;;;;;;4995535;28;20682;-67
2022/02/23 00:44:47;;;;;;;2.28;0.95;;;21.60;44.80;;;;;;4995685;28;20367;-69
2022/02/23 00:47:12;;;;;;;2.17;1.08;;;21.60;44.90;;;;;;4996098;28;20034;-69
2022/02/23 00:49:38;;;;;;;1.13;0.80;;;21.50;44.80;;;;;;4995207;28;20116;-70
2022/02/23 00:52:08;;;;;;;1.30;0.80;;;21.50;44.80;;;;;;4994968;28;20083;-70
2022/02/23 00:54:34;;;;;;;2.05;1.00;;;21.50;44.80;;;;;;5000358;28;20037;-68
2022/02/23 00:57:00;;;;;;;2.08;0.80;;;21.50;44.80;;;;;;4997458;28;20057;-66
2022/02/23 00:59:26;;;;;;;1.52;0.80;;;21.50;44.80;;;;;;5007015;28;20062;-70
2022/02/23 01:01:51;;;;;;;1.40;0.80;;;21.50;44.80;;;;;;4995693;28;20065;-70
2022/02/23 01:04:17;;;;;;;1.88;1.00;;;21.50;44.80;;;;;;4994755;28;20125;-66
2022/02/23 01:06:43;;;;;;;1.17;0.80;;;21.40;44.80;;;;;;4996970;28;20026;-67
2022/02/23 01:09:08;;;;;;;1.52;0.73;;;21.40;44.80;;;;;;4995772;28;20045;-69
2022/02/23 01:11:34;;;;;;;1.33;0.65;;;21.40;44.80;;;;;;4995924;28;20061;-68
2022/02/23 01:14:00;;;;;;;2.88;0.70;;;21.40;44.80;;;;;;4994844;28;20030;-67
2022/02/23 01:16:26;;;;;;;2.20;0.88;;;21.40;44.80;;;;;;4993624;28;20058;-67
2022/02/23 01:18:52;;;;;;;1.70;0.80;;;21.40;44.80;;;;;;4994833;28;20250;-70
2022/02/23 01:21:18;;;;;;;1.55;0.60;;;21.40;44.90;;;;;;4996060;28;20105;-67
2022/02/23 01:23:43;;;;;;;1.17;0.80;;;21.40;44.90;;;;;;4996362;28;20034;-68
2022/02/23 01:26:09;;;;;;;2.58;0.85;;;21.40;44.90;;;;;;4995837;28;20034;-70
2022/02/23 01:28:35;;;;;;;1.27;0.70;;;21.40;45.00;;;;;;5010222;28;20036;-69
2022/02/23 01:31:01;;;;;;;1.02;0.70;;;21.40;45.00;;;;;;4993726;28;20089;-69
2022/02/23 01:33:27;;;;;;;1.33;0.80;;;21.30;44.90;;;;;;4995509;28;20486;-67
2022/02/23 01:35:53;;;;;;;1.65;0.75;;;21.30;44.90;;;;;;4994339;28;20030;-66
2022/02/23 01:38:19;;;;;;;2.20;1.00;;;21.30;44.90;;;;;;4995993;28;20577;-67
2022/02/23 01:40:45;;;;;;;1.90;0.88;;;21.30;45.00;;;;;;4994622;28;20113;-69
2022/02/23 01:43:11;;;;;;;1.60;0.80;;;21.30;45.00;;;;;;4996109;28;20062;-66
2022/02/23 01:45:36;;;;;;;1.05;0.60;;;21.30;45.00;;;;;;4995594;28;20024;-69
2022/02/23 01:48:03;;;;;;;1.00;0.60;;;21.30;45.00;;;;;;4995394;28;20490;-69
2022/02/23 01:50:29;;;;;;;1.13;0.70;;;21.20;45.00;;;;;;4994631;28;20060;-68
2022/02/23 01:52:55;;;;;;;1.25;0.75;;;21.20;45.50;;;;;;4994739;28;20076;-67
2022/02/23 01:55:21;;;;;;;1.52;0.70;;;21.30;45.10;;;;;;4996473;28;20380;-70
2022/02/23 01:57:47;;;;;;;1.45;0.85;;;21.20;45.10;;;;;;5009618;28;20030;-69
2022/02/23 02:00:16;;;;;;;1.73;0.80;;;21.20;45.10;;;;;;4993367;28;20018;-66
2022/02/23 02:02:43;;;;;;;1.60;0.90;;;21.20;45.10;;;;;;4993815;28;20112;-69
2022/02/23 02:05:09;;;;;;;1.55;0.80;;;21.20;45.10;;;;;;4995946;28;20557;-69
2022/02/23 02:07:35;;;;;;;1.23;0.70;;;21.20;45.10;;;;;;4995837;28;20029;-69
2022/02/23 02:10:02;;;;;;;1.58;0.82;;;21.20;45.10;;;;;;4994125;28;20038;-67
2022/02/23 02:12:28;;;;;;;0.85;0.63;;;21.20;45.10;;;;;;4994501;28;20124;-67
2022/02/23 02:14:54;;;;;;;2.17;0.75;;;21.20;45.20;;;;;;4994107;28;20120;-69
2022/02/23 02:17:20;;;;;;;1.17;0.90;;;21.10;45.20;;;;;;4999990;28;20466;-69
2022/02/23 02:19:46;;;;;;;1.70;0.80;;;21.10;45.20;;;;;;4994393;28;20228;-69
2022/02/23 02:22:12;;;;;;;1.38;0.68;;;21.10;45.20;;;;;;4996139;28;20696;-69
2022/02/23 02:24:40;;;;;;;1.08;0.60;;;21.10;45.20;;;;;;4994980;28;20177;-69
2022/02/23 02:27:08;;;;;;;1.45;0.70;;;21.10;45.20;;;;;;4993605;28;20053;-68
2022/02/23 02:29:34;;;;;;;1.42;0.70;;;21.10;45.80;;;;;;4992895;28;20149;-69
2022/02/23 02:32:02;;;;;;;0.98;0.70;;;21.10;45.30;;;;;;4994795;28;20035;-67
2022/02/23 02:34:27;;;;;;;1.40;0.73;;;21.10;45.30;;;;;;5009830;28;20108;-67
2022/02/23 02:36:53;;;;;;;1.27;0.80;;;21.10;45.30;;;;;;4995936;28;20427;-67
2022/02/23 02:39:20;;;;;;;1.48;0.70;;;21.10;45.40;;;;;;4995794;28;20027;-67
2022/02/23 02:41:46;;;;;;;1.70;0.80;;;21.10;45.40;;;;;;4995085;28;20494;-66
2022/02/23 02:44:12;;;;;;;1.13;0.60;;;21.10;45.40;;;;;;4995312;28;20081;-70
2022/02/23 02:46:38;;;;;;;1.17;0.70;;;21.10;45.40;;;;;;4993820;28;20033;-70
2022/02/23 02:49:04;;;;;;;1.30;0.60;;;21.00;45.30;;;;;;4994015;28;20479;-66
2022/02/23 02:51:30;;;;;;;0.82;0.63;;;21.00;45.30;;;;;;4992864;28;20046;-70
2022/02/23 02:53:55;;;;;;;1.40;0.70;;;21.00;45.40;;;;;;4995760;28;20026;-66
2022/02/23 02:56:21;;;;;;;1.40;0.70;;;21.00;45.40;;;;;;4996315;28;20034;-70
2022/02/23 02:58:52;;;;;;;1.15;0.70;;;21.00;45.40;;;;;;4993123;28;20053;-70
2022/02/23 03:01:22;;;;;;;1.17;0.60;;;21.00;45.40;;;;;;4992778;28;20034;-69
2022/02/23 03:03:48;;;;;;;1.38;0.70;;;21.00;45.50;;;;;;4995303;28;20072;-69
2022/02/23 03:06:15;;;;;;;0.88;0.60;;;21.00;45.40;;;;;;4998072;28;20034;-68
2022/02/23 03:08:40;;;;;;;0.93;0.60;;;21.00;45.50;;;;;;4997355;28;20030;-67
2022/02/23 03:11:06;;;;;;;1.20;0.90;;;21.00;45.50;;;;;;5013668;28;20037;-67
2022/02/23 03:13:32;;;;;;;1.08;0.70;;;21.00;45.50;;;;;;4999251;28;20044;-70
2022/02/23 03:15:58;;;;;;;1.35;0.70;;;20.90;45.40;;;;;;4997000;28;20037;-67
2022/02/23 03:18:23;;;;;;;1.30;0.70;;;21.00;45.50;;;;;;4997504;28;20030;-67
2022/02/23 03:20:49;;;;;;;1.38;0.70;;;20.90;45.50;;;;;;5013205;28;20459;-68
2022/02/23 03:23:14;;;;;;;1.02;0.65;;;20.90;45.50;;;;;;4995295;28;20045;-69
2022/02/23 03:25:40;;;;;;;0.95;0.68;;;20.90;45.50;;;;;;4998238;28;20069;-67
2022/02/23 03:28:06;;;;;;;1.20;0.60;;;20.90;45.50;;;;;;5012353;28;20026;-67
2022/02/23 03:30:31;;;;;;;1.10;0.73;;;20.90;45.50;;;;;;4996679;28;20052;-67
2022/02/23 03:32:57;;;;;;;0.98;0.60;;;20.90;45.50;;;;;;4996816;28;20295;-69
2022/02/23 03:35:27;;;;;;;0.50;0.50;;;20.90;45.50;;;;;;4997090;28;20049;-69
2022/02/23 03:37:55;;;;;;;1.05;0.60;;;20.90;45.60;;;;;;4997722;28;20479;-67
2022/02/23 03:40:21;;;;;;;1.05;0.55;;;20.90;45.60;;;;;;5011778;28;20022;-69
2022/02/23 03:42:48;;;;;;;0.77;0.52;;;20.90;45.60;;;;;;4997295;28;20072;-67
2022/02/23 03:45:13;;;;;;;0.70;0.50;;;20.90;45.60;;;;;;4995826;28;20509;-67
2022/02/23 03:47:39;;;;;;;1.98;0.70;;;20.90;45.60;;;;;;4997778;28;20030;-69
2022/02/23 03:50:05;;;;;;;0.82;0.50;;;20.80;45.60;;;;;;4996995;28;20040;-67
2022/02/23 03:52:31;;;;;;;0.60;0.50;;;20.80;45.60;;;;;;4996883;28;20033;-67
2022/02/23 03:54:56;;;;;;;1.08;0.70;;;20.80;45.60;;;;;;4996255;28;20030;-69
2022/02/23 03:57:22;;;;;;;0.68;0.50;;;20.80;45.60;;;;;;4998476;28;20030;-69
2022/02/23 03:59:47;;;;;;;0.90;0.50;;;20.80;45.60;;;;;;4995471;28;20060;-69
2022/02/23 04:02:13;;;;;;;0.90;0.70;;;20.80;45.60;;;;;;4996036;28;20038;-68
2022/02/23 04:04:39;;;;;;;0.70;0.50;;;20.80;45.70;;;;;;4997405;28;20511;-69
2022/02/23 04:07:05;;;;;;;1.13;0.65;;;20.80;45.60;;;;;;4997689;28;20034;-69
2022/02/23 04:09:30;;;;;;;1.75;0.75;;;20.80;45.70;;;;;;4996181;28;20042;-67
2022/02/23 04:11:56;;;;;;;1.15;0.60;;;20.80;45.60;;;;;;5013136;28;20033;-67
2022/02/23 04:14:22;;;;;;;1.13;0.60;;;20.80;45.70;;;;;;4996749;28;20049;-69
2022/02/23 04:16:47;;;;;;;0.82;0.68;;;20.80;45.70;;;;;;4995960;28;20081;-69
2022/02/23 04:19:13;;;;;;;1.08;0.60;;;20.80;45.70;;;;;;4995964;28;20181;-70
2022/02/23 04:21:38;;;;;;;0.60;0.57;;;20.80;45.70;;;;;;4997684;28;20057;-69
2022/02/23 04:24:04;;;;;;;0.65;0.47;;;20.80;45.70;;;;;;4997974;28;20170;-66
2022/02/23 04:26:30;;;;;;;0.75;0.60;;;20.80;45.70;;;;;;5011891;28;20038;-69
2022/02/23 04:28:56;;;;;;;0.85;0.55;;;20.80;45.70;;;;;;4995311;28;20424;-67
2022/02/23 04:31:21;;;;;;;0.63;0.50;;;20.70;45.70;;;;;;4995572;28;20559;-67
2022/02/23 04:33:47;;;;;;;1.45;0.70;;;20.70;45.60;;;;;;4996585;28;20038;-66
2022/02/23 04:36:13;;;;;;;1.23;0.70;;;20.70;45.70;;;;;;4995074;28;20033;-67
2022/02/23 04:38:38;;;;;;;0.75;0.60;;;20.70;45.70;;;;;;4997479;28;20037;-67
2022/02/23 04:41:05;;;;;;;1.00;0.60;;;20.70;45.60;;;;;;4997377;28;20026;-66
2022/02/23 04:43:35;;;;;;;1.08;0.70;;;20.70;45.70;;;;;;4997251;28;20030;-69
2022/02/23 04:46:03;;;;;;;1.20;0.70;;;20.70;45.70;;;;;;4994409;28;20030;-69
2022/02/23 04:48:29;;;;;;;0.90;0.70;;;20.70;45.70;;;;;;4993328;28;20112;-69
2022/02/23 04:50:54;;;;;;;1.25;0.63;;;20.70;45.70;;;;;;5011584;28;20475;-69
2022/02/23 04:53:20;;;;;;;1.25;0.60;;;20.70;45.70;;;;;;4998120;28;20264;-66
2022/02/23 04:55:46;;;;;;;1.08;0.60;;;20.70;45.70;;;;;;4997759;28;20037;-67
2022/02/23 04:58:11;;;;;;;1.05;0.60;;;20.70;45.70;;;;;;4995812;28;20041;-69
2022/02/23 05:00:38;;;;;;;0.70;0.50;;;20.70;45.70;;;;;;4994054;28;20038;-65
2022/02/23 05:03:05;;;;;;;0.52;0.52;;;20.70;45.70;;;;;;4996087;28;20029;-69
2022/02/23 05:05:31;;;;;;;1.13;0.70;;;20.70;45.70;;;;;;5010964;28;20117;-69
2022/02/23 05:07:57;;;;;;;0.85;0.55;;;20.70;45.80;;;;;;4996169;28;20458;-67
2022/02/23 05:10:23;;;;;;;0.60;0.50;;;20.70;45.80;;;;;;4995516;28;20038;-69
2022/02/23 05:12:49;;;;;;;0.80;0.50;;;20.70;45.80;;;;;;4995929;28;20034;-66
2022/02/23 05:15:15;;;;;;;1.75;0.65;;;20.70;45.80;;;;;;4995988;28;20152;-69
2022/02/23 05:17:40;;;;;;;0.80;0.50;;;20.70;45.80;;;;;;5010312;28;20022;-67
2022/02/23 05:20:07;;;;;;;0.90;0.65;;;20.70;45.80;;;;;;5011157;28;20057;-66
2022/02/23 05:22:36;;;;;;;1.02;0.60;;;20.60;45.80;;;;;;4995697;28;20021;-69
2022/02/23 05:25:02;;;;;;;2.00;0.90;;;20.60;45.80;;;;;;4997254;28;20015;-66
2022/02/23 05:27:28;;;;;;;0.80;0.50;;;20.60;45.80;;;;;;4995144;28;20113;-69
2022/02/23 05:29:54;;;;;;;0.95;0.50;;;20.60;45.80;;;;;;4994088;28;20146;-68
2022/02/23 05:32:20;;;;;;;0.80;0.50;;;20.60;45.80;;;;;;4993647;28;20046;-70
2022/02/23 05:34:46;;;;;;;0.93;0.60;;;20.60;45.80;;;;;;5011748;28;20518;-67
2022/02/23 05:37:11;;;;;;;0.98;0.60;;;20.60;45.90;;;;;;4997515;28;20105;-67
2022/02/23 05:39:37;;;;;;;0.82;0.50;;;20.60;45.80;;;;;;4995503;28;20104;-69
2022/02/23 05:42:03;;;;;;;1.10;0.70;;;20.60;45.90;;;;;;4994766;28;20808;-69
2022/02/23 05:44:29;;;;;;;0.75;0.50;;;20.60;45.80;;;;;;4995187;28;20054;-66
2022/02/23 05:46:54;;;;;;;1.40;0.63;;;20.60;45.90;;;;;;4995516;28;20121;-67
2022/02/23 05:49:20;;;;;;;0.50;0.50;;;20.60;45.90;;;;;;4994706;28;20341;-69
2022/02/23 05:51:49;;;;;;;1.15;0.40;;;20.60;45.90;;;;;;4996351;28;20069;-67
2022/02/23 05:54:16;;;;;;;0.40;0.40;;;20.60;45.90;;;;;;4997195;28;20041;-67
2022/02/23 05:56:43;;;;;;;0.85;0.55;;;20.60;45.90;;;;;;4995817;28;20038;-68
2022/02/23 05:59:09;;;;;;;0.45;0.45;;;20.60;46.40;;;;;;4995589;28;20493;-67
2022/02/23 06:01:36;;;;;;;1.73;0.50;;;20.60;45.90;;;;;;4994313;28;20049;-69
2022/02/23 06:04:02;;;;;;;0.40;0.40;;;20.60;46.50;;;;;;4995384;28;20033;-67
2022/02/23 06:06:27;;;;;;;0.50;0.47;;;20.60;45.90;;;;;;4994933;28;20079;-66
2022/02/23 06:08:53;;;;;;;0.82;0.55;;;20.60;45.90;;;;;;4993202;28;20038;-66
2022/02/23 06:11:19;;;;;;;0.85;0.47;;;20.60;45.90;;;;;;4995972;28;20497;-69
2022/02/23 06:13:51;;;;;;;0.70;0.40;;;20.60;46.00;;;;;;4995336;28;20403;-68
2022/02/23 06:16:23;;;;;;;1.35;0.60;;;20.60;46.10;;;;;;4993029;28;20368;-67
2022/02/23 06:18:51;;;;;;;2.03;0.60;;;20.60;46.20;;;;;;4994105;28;20101;-69
2022/02/23 06:21:16;;;;;;;0.82;0.57;;;20.50;46.40;;;;;;4994510;28;20030;-69
2022/02/23 06:23:44;;;;;;;1.30;0.65;;;20.50;46.50;;;;;;4994699;28;20060;-69
2022/02/23 06:26:10;;;;;;;1.15;0.65;;;20.50;46.40;;;;;;4996476;28;20039;-70
2022/02/23 06:28:36;;;;;;;1.65;0.70;;;20.50;46.40;;;;;;5008767;28;20545;-69
2022/02/23 06:31:02;;;;;;;2.15;0.60;;;20.50;46.40;;;;;;4989979;28;20042;-70
2022/02/23 06:33:28;;;;;;;1.23;0.70;;;20.50;46.40;;;;;;4993640;28;20506;-67
2022/02/23 06:35:54;;;;;;;0.90;0.70;;;20.60;46.50;;;;;;4994345;28;20456;-65
2022/02/23 06:38:21;;;;;;;0.75;0.55;;;20.60;46.60;;;;;;4995928;28;20034;-66
2022/02/23 06:40:49;;;;;;;2.03;0.73;;;20.60;47.00;;;;;;4999889;28;20034;-67
2022/02/23 06:43:16;;;;;;;0.80;0.50;;;20.60;47.20;;;;;;4999248;28;20038;-67
2022/02/23 06:45:45;;;;;;;1.08;0.55;;;20.60;47.10;;;;;;4998140;28;20041;-69
2022/02/23 06:48:10;;;;;;;1.33;0.85;;;20.60;47.00;;;;;;4997445;28;20037;-67
2022/02/23 06:50:36;;;;;;;1.30;0.60;;;20.70;47.00;;;;;;4997720;28;20056;-64
2022/02/23 06:53:02;;;;;;;0.52;0.50;;;20.70;47.00;;;;;;4999424;28;20026;-67
2022/02/23 06:55:28;;;;;;;1.17;0.60;;;20.80;47.10;;;;;;4999464;28;20030;-67
2022/02/23 06:57:53;;;;;;;1.08;0.63;;;20.80;47.30;;;;;;4999578;28;20057;-65
2022/02/23 07:00:19;;;;;;;0.90;0.50;;;20.80;47.40;;;;;;4996448;28;20216;-65
2022/02/23 07:02:45;;;;;;;1.10;0.60;;;20.80;47.30;;;;;;5004684;28;20037;-66
2022/02/23 07:05:13;;;;;;;1.65;0.45;;;20.80;47.50;;;;;;5000331;28;20084;-67
2022/02/23 07:07:39;;;;;;;1.40;0.57;;;20.90;47.60;;;;;;5001124;28;20474;-63
2022/02/23 07:10:23;;;;;;;0.77;0.60;;;20.90;47.90;;;;;;4998344;28;20096;-67
2022/02/23 07:12:49;;;;;;;1.77;0.60;;;21.00;48.10;;;;;;4997871;28;20038;-65
2022/02/23 07:15:20;;;;;;;0.75;0.50;;;21.00;48.20;;;;;;4999466;28;20034;-65
2022/02/23 07:17:47;;;;;;;1.00;0.60;;;21.00;48.10;;;;;;4997979;28;20038;-65
2022/02/23 07:20:13;;;;;;;1.90;0.93;;;21.10;48.10;;;;;;4998980;28;20113;-66
2022/02/23 07:22:39;;;;;;;1.45;0.60;;;21.10;48.30;;;;;;4999259;28;20108;-67
2022/02/23 07:25:07;;;;;;;0.70;0.50;;;21.20;48.20;;;;;;5014387;28;20502;-65
2022/02/23 07:27:33;;;;;;;0.68;0.47;;;21.20;48.30;;;;;;4999405;28;20069;-66
2022/02/23 07:29:59;;;;;;;1.17;0.50;;;21.20;48.20;;;;;;4997706;28;20025;-62
2022/02/23 07:32:28;;;;;;;0.55;0.40;;;21.30;48.10;;;;;;4998406;28;20042;-68
2022/02/23 07:34:55;;;;;;;0.60;0.50;;;21.30;48.00;;;;;;4998936;28;20029;-66
2022/02/23 07:37:21;;;;;;;0.82;0.40;;;21.30;48.30;;;;;;5000483;28;20026;-66
2022/02/23 07:40:02;;;;;;;0.55;0.45;;;21.40;48.40;;;;;;5000058;28;20030;-66
2022/02/23 07:42:28;;;;;;;0.77;0.50;;;21.40;48.50;;;;;;5013840;28;20030;-66
2022/02/23 07:44:54;;;;;;;1.15;0.80;;;21.50;49.00;;;;;;4998169;28;20434;-69
2022/02/23 07:47:19;;;;;;;1.10;0.50;;;21.50;49.00;;;;;;4998615;28;20434;-65
2022/02/23 07:49:49;;;;;;;0.88;0.40;;;21.60;49.30;;;;;;4998184;28;20105;-68
2022/02/23 07:52:18;;;;;;;0.90;0.50;;;21.50;49.10;;;;;;5015103;28;20176;-68
2022/02/23 07:54:45;;;;;;;0.95;0.50;;;21.60;49.10;;;;;;4998620;28;20049;-68
2022/02/23 07:57:11;;;;;;;1.52;0.60;;;21.60;49.30;;;;;;5014005;28;20518;-64
2022/02/23 07:59:37;;;;;;;0.82;0.50;;;21.70;49.70;;;;;;4996894;28;20054;-64
2022/02/23 08:02:03;;;;;;;0.60;0.40;;;21.70;49.60;;;;;;4999299;28;20042;-66
2022/02/23 08:04:29;;;;;;;0.40;0.40;;;21.80;49.60;;;;;;5012353;28;20531;-66
2022/02/23 08:06:55;;;;;;;0.47;0.40;;;21.80;49.70;;;;;;5000643;28;20457;-64
2022/02/23 08:09:21;;;;;;;0.73;0.43;;;21.80;49.60;;;;;;4998255;28;20022;-69
2022/02/23 08:11:46;;;;;;;0.52;0.40;;;21.90;49.80;;;;;;4993805;28;20048;-67
2022/02/23 08:14:12;;;;;;;0.63;0.40;;;21.90;49.70;;;;;;4998137;28;20380;-67
2022/02/23 08:19:34;;;;;;;0.60;0.45;;;22.00;49.90;;;;;;4997307;28;20537;-68
2022/02/23 08:22:11;;;;;;;0.57;0.40;;;22.00;49.70;;;;;;4999924;28;20081;-64
2022/02/23 08:24:44;;;;;;;0.30;0.30;;;22.10;49.70;;;;;;4997192;28;20068;-68
2022/02/23 08:27:12;;;;;;;0.65;0.47;;;22.10;49.60;;;;;;4998732;28;20478;-64
2022/02/23 08:29:40;;;;;;;0.68;0.40;;;22.10;49.50;;;;;;4996315;28;20063;-64
2022/02/23 08:32:08;;;;;;;0.73;0.47;;;22.20;49.50;;;;;;4995462;28;20058;-63
2022/02/23 08:34:35;;;;;;;0.40;0.40;;;22.20;50.00;;;;;;4997876;28;20026;-64
2022/02/23 08:37:01;;;;;;;0.80;0.50;;;22.30;49.50;;;;;;5000129;28;20033;-66
2022/02/23 08:39:28;;;;;;;0.52;0.45;;;22.30;49.50;;;;;;4998071;28;20064;-65
2022/02/23 08:41:54;;;;;;;0.50;0.38;;;22.30;49.40;;;;;;4999600;28;20030;-68
2022/02/23 08:44:20;;;;;;;0.60;0.60;;;22.40;49.40;;;;;;4998475;28;20443;-67
2022/02/23 08:46:45;;;;;;;0.75;0.50;;;22.40;49.30;;;;;;4995945;28;20061;-68
2022/02/23 08:49:12;;;;;;;0.65;0.52;;;22.50;49.30;;;;;;4998426;28;20061;-67
2022/02/23 08:51:42;;;;;;;0.47;0.38;;;22.50;49.30;;;;;;4996075;28;20486;-65
2022/02/23 08:54:08;;;;;;;0.40;0.40;;;22.50;49.30;;;;;;4998883;28;20034;-66
2022/02/23 08:56:34;;;;;;;0.38;0.38;;;22.50;49.20;;;;;;4999114;28;20124;-68
2022/02/23 08:59:00;;;;;;;0.63;0.40;;;22.60;49.30;;;;;;4998969;28;20109;-67
2022/02/23 09:01:26;;;;;;;0.45;0.40;;;22.60;49.30;;;;;;4996796;28;20038;-66
2022/02/23 09:03:52;;;;;;;0.45;0.40;;;22.70;49.80;;;;;;4997185;28;20036;-66
2022/02/23 09:06:18;;;;;;;0.45;0.40;;;22.70;49.30;;;;;;4997511;28;20065;-63
2022/02/23 09:08:44;;;;;;;0.38;0.38;;;22.80;49.30;;;;;;4997112;28;20086;-68
2022/02/23 09:11:12;;;;;;;0.60;0.50;;;22.80;49.30;;;;;;4999687;28;20040;-66
2022/02/23 09:13:38;;;;;;;0.75;0.50;;;22.80;49.20;;;;;;5000680;28;20022;-66
2022/02/23 09:16:04;;;;;;;0.73;0.50;;;22.90;49.80;;;;;;4996488;28;20175;-66
2022/02/23 09:18:30;;;;;;;0.30;0.30;;;22.90;49.20;;;;;;4996480;28;20064;-67
2022/02/23 09:20:56;;;;;;;0.45;0.45;;;22.90;49.20;;;;;;4997122;28;20030;-66
2022/02/23 09:23:22;;;;;;;0.28;0.28;;;22.90;49.20;;;;;;4998170;28;20113;-65
2022/02/23 09:25:47;;;;;;;0.55;0.38;;;23.00;49.30;;;;;;4998854;28;20030;-64
2022/02/23 09:28:13;;;;;;;0.68;0.50;;;23.10;49.30;;;;;;4995778;28;20057;-62
2022/02/23 09:30:38;;;;;;;0.38;0.30;;;23.10;49.30;;;;;;4997213;28;20382;-67
2022/02/23 09:33:04;;;;;;;0.30;0.30;;;23.10;49.20;;;;;;4997732;28;20029;-64
2022/02/23 09:35:30;;;;;;;0.52;0.43;;;23.20;49.20;;;;;;4998657;28;20089;-65
2022/02/23 09:37:57;;;;;;;0.68;0.40;;;23.10;49.10;;;;;;4999402;28;20489;-66
2022/02/23 09:40:24;;;;;;;0.30;0.30;;;23.20;49.00;;;;;;5013140;28;20031;-66
2022/02/23 09:42:50;;;;;;;0.93;0.50;;;23.20;49.00;;;;;;5001451;28;20113;-66
2022/02/23 09:45:17;;;;;;;1.65;0.70;;;23.20;47.10;;;;;;5000623;28;20393;-68
2022/02/23 09:47:43;;;;;;;0.93;0.63;;;23.20;45.50;;;;;;4997313;28;20395;-67
2022/02/23 09:50:18;;;;;;;0.98;0.60;;;23.20;45.30;;;;;;4996746;28;20038;-65
2022/02/23 09:52:44;;;;;;;0.80;0.50;;;23.10;45.10;;;;;;4998770;28;20022;-68
2022/02/23 09:55:10;;;;;;;1.23;0.70;;;23.10;45.00;;;;;;4997453;28;20462;-66
2022/02/23 09:57:37;;;;;;;1.05;0.70;;;23.10;44.90;;;;;;4998455;28;20463;-68
2022/02/23 10:00:05;;;;;;;1.23;0.60;;;23.10;44.80;;;;;;4996890;28;20070;-65
2022/02/23 10:02:33;;;;;;;1.10;0.60;;;23.10;44.80;;;;;;4998024;28;20054;-65
2022/02/23 10:05:00;;;;;;;1.08;0.85;;;23.00;44.70;;;;;;4998920;28;20026;-69
2022/02/23 10:07:30;;;;;;;0.77;0.40;;;23.00;44.60;;;;;;4997486;28;20113;-69
2022/02/23 10:09:59;;;;;;;0.65;0.50;;;23.10;44.70;;;;;;4998627;28;20026;-69
2022/02/23 10:12:27;;;;;;;0.85;0.50;;;23.10;44.70;;;;;;4998014;28;20642;-69
2022/02/23 10:15:05;;;;;;;0.68;0.50;;;23.00;44.60;;;;;;5000724;28;20035;-68
2022/02/23 10:17:47;;;;;;;1.20;0.55;;;23.00;44.60;;;;;;5001444;28;20026;-68
2022/02/23 10:20:28;;;;;;;1.38;0.75;;;23.10;44.60;;;;;;4999335;28;20046;-69
2022/02/23 10:23:18;;;;;;;0.88;0.60;;;23.10;44.60;;;;;;5001154;28;20034;-68
2022/02/23 10:25:58;;;;;;;0.75;0.50;;;23.10;44.60;;;;;;5001951;28;20038;-68
2022/02/23 10:28:29;;;;;;;0.63;0.50;;;23.10;44.60;;;;;;5000821;28;20032;-69
2022/02/23 10:30:57;;;;;;;0.90;0.50;;;23.10;44.60;;;;;;4998135;28;20045;-68
2022/02/23 10:33:26;;;;;;;0.75;0.50;;;23.10;44.60;;;;;;5001580;28;21594;-69
2022/02/23 10:36:04;;;;;;;1.52;0.60;;;23.10;44.60;;;;;;5000532;28;20481;-69
2022/02/23 10:38:33;;;;;;;1.13;0.65;;;23.10;44.60;;;;;;5000185;28;20412;-68
2022/02/23 10:41:01;;;;;;;0.80;0.50;;;23.10;44.60;;;;;;4999952;28;20157;-68
2022/02/23 10:43:40;;;;;;;1.52;0.57;;;23.10;44.60;;;;;;4999939;28;20080;-68
2022/02/23 10:46:07;;;;;;;0.65;0.50;;;23.10;44.60;;;;;;4997152;28;20505;-68
2022/02/23 10:48:39;;;;;;;0.60;0.50;;;23.10;44.60;;;;;;5000455;28;20030;-68
2022/02/23 10:51:07;;;;;;;0.77;0.60;;;23.10;44.70;;;;;;4997347;28;20034;-68
2022/02/23 10:53:33;;;;;;;0.90;0.60;;;23.10;44.60;;;;;;5000569;28;20116;-64
2022/02/23 10:55:59;;;;;;;0.70;0.50;;;23.10;44.60;;;;;;4998997;28;20109;-68
2022/02/23 10:58:29;;;;;;;0.60;0.60;;;23.10;44.60;;;;;;5005854;28;20058;-67
2022/02/23 11:01:02;;;;;;;1.02;0.50;;;23.10;44.60;;;;;;4998232;28;20046;-68
2022/02/23 11:03:28;;;;;;;0.75;0.50;;;23.10;44.50;;;;;;5001945;28;20029;-64
2022/02/23 11:05:54;;;;;;;0.93;0.57;;;23.10;44.50;;;;;;5000671;28;20112;-66
2022/02/23 11:08:21;;;;;;;0.88;0.50;;;23.20;44.50;;;;;;4999840;28;20542;-67
2022/02/23 11:10:48;;;;;;;0.82;0.55;;;23.20;44.50;;;;;;5015312;28;20491;-68
2022/02/23 11:13:15;;;;;;;1.13;0.52;;;23.20;44.50;;;;;;5000755;28;20660;-69
2022/02/23 11:15:43;;;;;;;1.05;0.50;;;23.20;44.50;;;;;;4998717;28;20065;-68
2022/02/23 11:18:12;;;;;;;0.57;0.45;;;23.20;44.50;;;;;;5013522;28;20141;-67
2022/02/23 11:20:39;;;;;;;0.85;0.57;;;23.20;44.50;;;;;;4999539;28;20080;-62
2022/02/23 11:23:06;;;;;;;0.82;0.50;;;23.20;44.60;;;;;;5014996;28;20530;-69
2022/02/23 11:25:38;;;;;;;1.70;0.60;;;23.20;44.60;;;;;;4998613;28;20037;-68
2022/02/23 11:28:23;;;;;;;0.55;0.55;;;23.20;44.50;;;;;;4997115;28;20041;-67
2022/02/23 11:30:56;;;;;;;0.98;0.63;;;23.30;44.50;;;;;;4997201;28;20049;-69
2022/02/23 11:33:58;;;;;;;1.10;0.60;;;23.20;44.40;;;;;;4998656;28;20025;-69
2022/02/23 11:36:31;;;;;;;0.60;0.50;;;23.20;44.50;;;;;;5014120;28;20038;-68
2022/02/23 11:39:07;;;;;;;0.35;0.35;;;23.20;44.40;;;;;;4994887;28;20022;-69
2022/02/23 11:41:35;;;;;;;1.05;0.60;;;23.20;44.40;;;;;;5013730;28;20062;-70
2022/02/23 11:44:07;;;;;;;0.73;0.50;;;23.20;44.40;;;;;;4998493;28;20478;-70
2022/02/23 11:46:33;;;;;;;0.93;0.63;;;23.30;44.50;;;;;;4997634;28;20796;-70
2022/02/23 11:49:11;;;;;;;1.10;0.55;;;23.30;44.40;;;;;;4997238;28;20061;-69
2022/02/23 11:51:37;;;;;;;1.00;0.50;;;23.30;44.30;;;;;;4998545;28;20549;-72
2022/02/23 11:54:02;;;;;;;1.08;0.60;;;23.30;44.30;;;;;;4999043;28;20045;-72
2022/02/23 11:56:49;;;;;;;1.02;0.60;;;23.30;44.30;;;;;;4999805;28;20038;-69
2022/02/23 11:59:53;;;;;;;1.27;0.70;;;23.30;44.40;;;;;;5000591;28;20381;-68
2022/02/23 12:02:31;;;;;;;0.77;0.52;;;23.30;44.30;;;;;;4997376;28;20092;-68
2022/02/23 12:04:59;;;;;;;0.90;0.57;;;23.40;44.40;;;;;;5012881;28;20490;-70
2022/02/23 12:07:25;;;;;;;0.55;0.50;;;23.40;44.50;;;;;;4999406;28;20085;-70
2022/02/23 12:10:00;;;;;;;0.90;0.70;;;23.40;44.60;;;;;;5002727;28;20029;-68
2022/02/23 12:12:31;;;;;;;0.75;0.50;;;23.40;44.60;;;;;;5013912;28;20091;-68
2022/02/23 12:14:58;;;;;;;1.10;0.60;;;23.40;44.60;;;;;;4999105;28;20490;-68
2022/02/23 12:18:07;;;;;;;0.93;0.60;;;23.40;44.60;;;;;;4998159;28;20090;-67
2022/02/23 12:20:35;;;;;;;1.02;0.55;;;23.40;44.60;;;;;;4994438;28;20061;-70
2022/02/23 12:23:08;;;;;;;1.80;0.60;;;23.40;44.70;;;;;;5014993;28;20038;-69
2022/02/23 12:26:04;;;;;;;0.95;0.57;;;23.40;44.70;;;;;;5002981;28;20036;-66
2022/02/23 12:28:35;;;;;;;1.10;0.68;;;23.40;44.70;;;;;;4998169;28;20034;-70
2022/02/23 12:31:06;;;;;;;0.77;0.50;;;23.40;44.80;;;;;;4996357;28;20045;-69
2022/02/23 12:33:33;;;;;;;0.93;0.60;;;23.50;44.80;;;;;;4997436;28;20049;-68
2022/02/23 12:36:11;;;;;;;1.15;0.60;;;23.50;44.80;;;;;;4996839;28;20041;-70
2022/02/23 12:38:46;;;;;;;1.02;0.70;;;23.50;44.80;;;;;;4997986;28;20026;-65
2022/02/23 12:41:23;;;;;;;1.67;0.80;;;23.50;44.80;;;;;;4999350;28;20031;-70
2022/02/23 12:44:13;;;;;;;2.13;0.90;;;23.50;44.70;;;;;;4999397;28;20030;-70
2022/02/23 12:46:43;;;;;;;2.83;1.10;;;23.50;44.60;;;;;;4996282;28;20514;-67
2022/02/23 12:49:10;;;;;;;3.88;1.50;;;23.50;44.70;;;;;;4996699;28;20473;-68
2022/02/23 12:51:36;;;;;;;4.00;1.83;;;23.50;44.70;;;;;;4998868;28;20057;-66
2022/02/23 12:54:04;;;;;;;4.97;2.25;;;23.50;44.60;;;;;;4999147;28;20127;-66